createdAt,value
2018-06-09T00:01:19.429Z,79.19
2018-06-09T00:03:48.436Z,79.34
2018-06-09T00:06:17.444Z,79.22
2018-06-09T00:08:46.393Z,79.47
2018-06-09T00:11:15.354Z,79.42
2018-06-09T00:13:44.357Z,79.35
2018-06-09T00:16:13.335Z,79.04
2018-06-09T00:18:42.358Z,79.24
2018-06-09T00:21:11.335Z,78.22
2018-06-09T00:23:40.401Z,79.17
2018-06-09T00:26:09.468Z,78.93
2018-06-09T00:28:38.508Z,78.53
2018-06-09T00:31:07.667Z,78.37
2018-06-09T00:33:36.732Z,78.29
2018-06-09T00:36:05.755Z,77.33
2018-06-09T00:38:34.789Z,77.68
2018-06-09T00:41:03.862Z,77.88
2018-06-09T00:43:32.820Z,77.71
2018-06-09T00:46:01.837Z,77.49
2018-06-09T00:48:30.856Z,77.12
2018-06-09T00:50:59.878Z,76.93
2018-06-09T00:53:28.889Z,77.70
2018-06-09T00:56:08.727Z,77.66
2018-06-09T00:58:37.723Z,77.53
2018-06-09T01:01:06.739Z,77.11
2018-06-09T01:03:35.796Z,77.34
2018-06-09T01:06:04.752Z,77.97
2018-06-09T01:08:33.785Z,77.41
2018-06-09T01:11:03.688Z,77.43
2018-06-09T01:13:32.695Z,77.40
2018-06-09T01:16:01.753Z,77.97
2018-06-09T01:18:30.822Z,78.27
2018-06-09T01:20:59.785Z,77.78
2018-06-09T01:23:28.784Z,78.19
2018-06-09T01:25:57.865Z,78.39
2018-06-09T01:28:26.834Z,78.18
2018-06-09T01:30:55.832Z,78.49
2018-06-09T01:33:24.828Z,78.68
2018-06-09T01:35:53.816Z,78.39
2018-06-09T01:38:22.772Z,78.46
2018-06-09T01:40:51.773Z,78.79
2018-06-09T01:43:20.846Z,79.17
2018-06-09T01:45:49.859Z,78.10
2018-06-09T01:48:18.873Z,77.96
2018-06-09T01:50:47.929Z,78.29
2018-06-09T01:53:16.944Z,78.40
2018-06-09T01:55:45.952Z,79.79
2018-06-09T01:58:15.005Z,80.03
2018-06-09T02:00:43.957Z,79.41
2018-06-09T02:03:12.962Z,79.94
2018-06-09T02:05:41.913Z,80.00
2018-06-09T02:08:10.867Z,81.02
2018-06-09T02:10:39.899Z,80.42
2018-06-09T02:13:08.902Z,80.91
2018-06-09T02:15:37.913Z,80.82
2018-06-09T02:18:06.892Z,81.14
2018-06-09T02:20:35.887Z,81.71
2018-06-09T02:23:04.946Z,81.98
2018-06-09T02:25:33.948Z,82.07
2018-06-09T02:28:02.965Z,82.12
2018-06-09T02:30:31.920Z,82.10
2018-06-09T02:33:00.862Z,82.96
2018-06-09T02:35:30.017Z,82.80
2018-06-09T02:37:59.041Z,83.37
2018-06-09T02:40:28.053Z,83.87
2018-06-09T02:42:57.057Z,83.80
2018-06-09T02:45:25.987Z,84.25
2018-06-09T02:47:55.005Z,84.29
2018-06-09T02:50:23.959Z,84.43
2018-06-09T02:52:52.915Z,84.86
2018-06-09T02:55:21.884Z,84.67
2018-06-09T02:57:50.831Z,84.64
2018-06-09T03:00:19.836Z,84.86
2018-06-09T03:02:48.963Z,84.59
2018-06-09T03:05:17.972Z,84.84
2018-06-09T03:07:47.038Z,84.91
2018-06-09T03:10:16.095Z,84.14
2018-06-09T03:12:45.119Z,83.44
2018-06-09T03:15:14.113Z,82.65
2018-06-09T03:17:43.073Z,82.12
2018-06-09T03:20:12.089Z,81.48
2018-06-09T03:22:41.157Z,81.63
2018-06-09T03:25:10.168Z,80.64
2018-06-09T03:30:06.999Z,80.15
2018-06-09T03:32:36.047Z,79.34
2018-06-09T03:35:05.108Z,78.22
2018-06-09T03:37:34.127Z,77.62
2018-06-09T03:40:03.156Z,76.72
2018-06-09T03:42:32.167Z,74.79
2018-06-09T03:45:01.259Z,73.65
2018-06-09T03:47:30.300Z,72.03
2018-06-09T03:49:59.312Z,69.19
2018-06-09T03:52:28.312Z,68.23
2018-06-09T03:54:57.288Z,67.84
2018-06-09T03:57:26.252Z,65.21
2018-06-09T03:59:55.249Z,64.25
2018-06-09T04:02:24.267Z,63.88
2018-06-09T04:04:53.319Z,61.17
2018-06-09T04:07:22.356Z,58.93
2018-06-09T04:09:51.398Z,57.13
2018-06-09T04:12:20.413Z,54.79
2018-06-09T04:14:49.428Z,52.54
2018-06-09T04:17:18.445Z,51.29
2018-06-09T04:19:47.384Z,48.63
2018-06-09T04:22:16.395Z,47.57
2018-06-09T04:24:45.461Z,47.33
2018-06-09T04:27:14.508Z,46.85
2018-06-09T04:29:43.536Z,46.86
2018-06-09T04:32:12.527Z,45.63
2018-06-09T04:34:41.509Z,45.30
2018-06-09T04:37:10.506Z,45.67
2018-06-09T04:39:39.537Z,45.63
2018-06-09T04:42:08.575Z,45.27
2018-06-09T04:44:37.511Z,43.80
2018-06-09T04:47:06.565Z,42.59
2018-06-09T04:49:35.504Z,42.58
2018-06-09T04:52:04.623Z,42.50
2018-06-09T04:54:33.664Z,43.66
2018-06-09T04:57:02.661Z,42.04
2018-06-09T04:59:31.672Z,41.57
2018-06-09T05:02:00.841Z,40.09
2018-06-09T05:04:29.916Z,41.63
2018-06-09T05:06:58.920Z,38.66
2018-06-09T05:09:27.859Z,36.87
2018-06-09T05:11:56.813Z,36.64
2018-06-09T05:14:25.877Z,36.40
2018-06-09T05:16:54.948Z,36.43
2018-06-09T05:19:23.962Z,37.12
2018-06-09T05:21:52.948Z,37.80
2018-06-09T05:24:21.964Z,37.77
2018-06-09T05:26:50.969Z,36.90
2018-06-09T05:29:20.140Z,38.53
2018-06-09T05:31:49.100Z,40.24
2018-06-09T05:34:20.115Z,40.17
2018-06-09T05:36:49.084Z,39.03
2018-06-09T05:39:18.067Z,38.05
2018-06-09T05:41:47.167Z,37.96
2018-06-09T05:44:16.232Z,36.82
2018-06-09T05:46:45.261Z,36.65
2018-06-09T05:49:14.282Z,37.40
2018-06-09T05:51:43.294Z,37.27
2018-06-09T05:54:12.727Z,37.21
2018-06-09T05:56:41.679Z,36.77
2018-06-09T05:59:10.664Z,36.23
2018-06-09T06:01:39.632Z,36.12
2018-06-09T06:04:08.656Z,35.60
2018-06-09T06:06:37.732Z,34.19
2018-06-09T06:09:08.401Z,35.35
2018-06-09T06:11:37.434Z,33.86
2018-06-09T06:14:06.372Z,34.54
2018-06-09T06:16:35.477Z,33.51
2018-06-09T06:19:04.536Z,35.66
2018-06-09T06:21:33.549Z,36.16
2018-06-09T06:24:02.589Z,36.85
2018-06-09T06:26:31.656Z,36.96
2018-06-09T06:29:00.587Z,35.58
2018-06-09T06:31:29.895Z,37.77
2018-06-09T06:33:58.876Z,38.86
2018-06-09T06:36:27.928Z,38.18
2018-06-09T06:38:56.936Z,38.41
2018-06-09T06:41:26.516Z,38.04
2018-06-09T06:43:55.625Z,39.25
2018-06-09T06:46:24.648Z,39.48
2018-06-09T06:48:53.719Z,37.73
2018-06-09T06:51:22.752Z,37.18
2018-06-09T06:53:51.920Z,37.41
2018-06-09T06:56:21.037Z,36.09
2018-06-09T06:58:50.081Z,36.24
2018-06-09T07:01:19.030Z,34.85
2018-06-09T07:03:48.057Z,36.13
2018-06-09T07:06:17.037Z,34.66
2018-06-09T07:08:46.044Z,35.28
2018-06-09T07:11:14.992Z,35.54
2018-06-09T07:13:44.001Z,34.71
2018-06-09T07:16:13.052Z,36.80
2018-06-09T07:18:42.094Z,38.41
2018-06-09T07:21:11.128Z,39.55
2018-06-09T07:23:40.190Z,40.24
2018-06-09T07:26:09.199Z,42.28
2018-06-09T07:28:38.171Z,41.38
2018-06-09T07:31:07.144Z,41.51
2018-06-09T07:33:36.208Z,39.25
2018-06-09T07:36:05.193Z,36.31
2018-06-09T07:38:34.244Z,36.06
2018-06-09T07:41:03.306Z,35.57
2018-06-09T07:43:32.289Z,34.85
2018-06-09T07:46:01.421Z,35.92
2018-06-09T07:48:30.436Z,36.95
2018-06-09T07:50:59.514Z,35.98
2018-06-09T07:53:28.606Z,37.04
2018-06-09T07:55:57.683Z,38.54
2018-06-09T07:58:26.756Z,37.84
2018-06-09T08:00:55.815Z,35.98
2018-06-09T08:03:24.777Z,35.73
2018-06-09T08:05:53.741Z,34.71
2018-06-09T08:08:22.763Z,32.55
2018-06-09T08:10:51.949Z,34.41
2018-06-09T08:13:20.901Z,34.41
2018-06-09T08:15:49.853Z,33.79
2018-06-09T08:18:18.880Z,34.63
2018-06-09T08:20:47.860Z,33.91
2018-06-09T08:23:16.868Z,30.29
2018-06-09T08:25:45.885Z,30.49
2018-06-09T08:28:14.869Z,31.28
2018-06-09T08:30:43.831Z,31.16
2018-06-09T08:33:12.829Z,32.44
2018-06-09T08:35:41.870Z,30.31
2018-06-09T08:38:10.857Z,32.72
2018-06-09T08:40:39.945Z,31.81
2018-06-09T08:43:08.928Z,31.60
2018-06-09T08:45:37.954Z,32.14
2018-06-09T08:48:07.109Z,31.54
2018-06-09T08:50:36.109Z,32.34
2018-06-09T08:53:05.116Z,32.78
2018-06-09T08:55:34.249Z,32.36
2018-06-09T08:58:03.282Z,31.18
2018-06-09T09:00:32.440Z,31.32
2018-06-09T09:03:01.413Z,31.84
2018-06-09T09:05:30.444Z,32.77
2018-06-09T09:07:59.537Z,33.36
2018-06-09T09:10:28.497Z,30.74
2018-06-09T09:12:57.649Z,31.94
2018-06-09T09:15:26.689Z,30.98
2018-06-09T09:17:55.673Z,32.92
2018-06-09T09:20:24.650Z,32.02
2018-06-09T09:22:53.633Z,33.42
2018-06-09T09:25:22.662Z,32.07
2018-06-09T09:27:51.680Z,31.35
2018-06-09T09:30:20.698Z,32.71
2018-06-09T09:32:49.673Z,32.26
2018-06-09T09:35:18.655Z,31.62
2018-06-09T09:37:47.802Z,31.89
2018-06-09T09:40:16.805Z,34.00
2018-06-09T09:42:45.850Z,33.50
2018-06-09T09:45:15.293Z,34.21
2018-06-09T09:47:44.336Z,34.41
2018-06-09T09:50:13.486Z,33.92
2018-06-09T09:52:42.588Z,33.90
2018-06-09T09:55:11.572Z,32.54
2018-06-09T09:57:51.625Z,34.25
2018-06-09T10:00:23.677Z,35.26
2018-06-09T10:02:52.680Z,34.41
2018-06-09T10:05:21.710Z,33.47
2018-06-09T10:07:50.717Z,33.90
2018-06-09T10:10:19.787Z,32.80
2018-06-09T10:12:48.763Z,33.62
2018-06-09T10:15:17.737Z,35.08
2018-06-09T10:17:46.772Z,34.75
2018-06-09T10:20:15.845Z,33.26
2018-06-09T10:22:44.869Z,35.45
2018-06-09T10:25:13.829Z,34.91
2018-06-09T10:27:42.881Z,35.91
2018-06-09T10:30:11.963Z,34.86
2018-06-09T10:32:41.089Z,35.88
2018-06-09T10:35:10.046Z,34.80
2018-06-09T10:37:39.076Z,35.42
2018-06-09T10:40:08.058Z,34.83
2018-06-09T10:42:37.027Z,32.74
2018-06-09T10:45:06.102Z,33.08
2018-06-09T10:47:35.069Z,31.33
2018-06-09T10:50:04.085Z,31.05
2018-06-09T10:52:33.120Z,30.25
2018-06-09T10:55:02.152Z,27.88
2018-06-09T10:57:31.526Z,29.28
2018-06-09T11:00:00.519Z,29.26
2018-06-09T11:02:29.533Z,27.12
2018-06-09T11:04:58.628Z,27.94
2018-06-09T11:07:27.639Z,27.23
2018-06-09T11:09:56.872Z,27.88
2018-06-09T11:12:25.921Z,28.62
2018-06-09T11:14:54.926Z,27.30
2018-06-09T11:17:24.029Z,26.44
2018-06-09T11:19:53.052Z,26.99
2018-06-09T11:22:22.064Z,28.63
2018-06-09T11:24:51.191Z,28.56
2018-06-09T11:27:20.236Z,28.87
2018-06-09T11:29:49.220Z,26.83
2018-06-09T11:32:18.244Z,29.03
2018-06-09T11:34:47.328Z,28.02
2018-06-09T11:37:16.292Z,27.08
2018-06-09T11:39:45.248Z,28.25
2018-06-09T11:42:14.216Z,28.84
2018-06-09T11:44:43.263Z,27.38
2018-06-09T11:47:12.376Z,25.89
2018-06-09T11:49:41.405Z,27.01
2018-06-09T11:52:10.408Z,26.64
2018-06-09T11:54:39.367Z,29.96
2018-06-09T11:57:08.367Z,26.57
2018-06-09T11:59:37.376Z,25.76
2018-06-09T12:02:06.395Z,26.10
2018-06-09T12:04:35.441Z,25.80
2018-06-09T12:07:04.424Z,25.77
2018-06-09T12:09:33.381Z,26.20
2018-06-09T12:12:02.501Z,25.86
2018-06-09T12:14:31.484Z,26.04
2018-06-09T12:17:00.500Z,25.03
2018-06-09T12:19:29.517Z,27.56
2018-06-09T12:21:58.520Z,26.29
2018-06-09T12:24:27.556Z,27.87
2018-06-09T12:26:56.500Z,28.33
2018-06-09T12:29:25.578Z,26.27
2018-06-09T12:31:54.622Z,27.71
2018-06-09T12:34:23.584Z,28.37
2018-06-09T12:36:52.647Z,29.04
2018-06-09T12:39:21.660Z,29.56
2018-06-09T12:41:50.736Z,27.85
2018-06-09T12:44:19.759Z,26.16
2018-06-09T12:46:48.809Z,27.43
2018-06-09T12:49:17.832Z,26.28
2018-06-09T12:51:46.782Z,28.08
2018-06-09T12:54:15.844Z,26.55
2018-06-09T12:56:44.828Z,27.39
2018-06-09T12:59:13.897Z,26.02
2018-06-09T13:01:42.924Z,26.91
2018-06-09T13:04:11.865Z,27.59
2018-06-09T13:06:40.878Z,26.38
2018-06-09T13:09:10.017Z,28.20
2018-06-09T13:11:39.038Z,27.53
2018-06-09T13:14:08.207Z,26.91
2018-06-09T13:16:37.237Z,27.80
2018-06-09T13:19:06.252Z,27.93
2018-06-09T13:21:35.285Z,27.87
2018-06-09T13:24:04.349Z,28.13
2018-06-09T13:26:33.375Z,28.07
2018-06-09T13:29:02.392Z,26.96
2018-06-09T13:31:31.336Z,25.88
2018-06-09T13:34:00.337Z,26.91
2018-06-09T13:36:29.348Z,28.06
2018-06-09T13:38:58.421Z,29.15
2018-06-09T13:41:27.480Z,28.80
2018-06-09T13:43:56.499Z,27.86
2018-06-09T13:46:25.593Z,28.76
2018-06-09T13:48:54.547Z,28.09
2018-06-09T13:51:23.563Z,29.60
2018-06-09T13:53:52.516Z,30.79
2018-06-09T13:56:21.497Z,31.70
2018-06-09T13:58:50.554Z,33.12
2018-06-09T14:01:19.609Z,33.32
2018-06-09T14:03:48.701Z,33.64
2018-06-09T14:06:17.656Z,34.71
2018-06-09T14:08:46.733Z,34.31
2018-06-09T14:11:15.773Z,36.98
2018-06-09T14:13:44.798Z,35.43
2018-06-09T14:16:13.889Z,36.64
2018-06-09T14:18:42.921Z,36.63
2018-06-09T14:21:11.884Z,37.72
2018-06-09T14:23:40.864Z,37.09
2018-06-09T14:26:09.816Z,37.07
2018-06-09T14:28:38.840Z,36.95
2018-06-09T14:31:07.909Z,37.35
2018-06-09T14:33:36.976Z,37.87
2018-06-09T14:36:06.026Z,37.58
2018-06-09T14:38:35.106Z,36.70
2018-06-09T14:41:04.120Z,36.82
2018-06-09T14:43:33.180Z,36.83
2018-06-09T14:46:02.168Z,36.23
2018-06-09T14:48:31.186Z,35.90
2018-06-09T14:51:00.144Z,35.81
2018-06-09T14:53:29.152Z,38.25
2018-06-09T14:55:58.097Z,36.86
2018-06-09T14:58:27.119Z,36.56
2018-06-09T15:00:56.060Z,37.21
2018-06-09T15:03:25.113Z,38.85
2018-06-09T15:05:54.232Z,39.25
2018-06-09T15:08:23.200Z,37.43
2018-06-09T15:10:52.276Z,37.33
2018-06-09T15:13:21.248Z,37.17
2018-06-09T15:15:50.216Z,36.72
2018-06-09T15:18:19.230Z,37.09
2018-06-09T15:20:48.193Z,37.20
2018-06-09T15:23:17.193Z,37.61
2018-06-09T15:25:46.160Z,38.16
2018-06-09T15:28:15.273Z,37.57
2018-06-09T15:30:44.427Z,38.92
2018-06-09T15:33:13.498Z,39.14
2018-06-09T15:35:42.461Z,39.35
2018-06-09T15:38:11.529Z,40.26
2018-06-09T15:40:40.479Z,41.47
2018-06-09T15:43:09.536Z,41.33
2018-06-09T15:45:38.493Z,40.76
2018-06-09T15:48:07.437Z,41.78
2018-06-09T15:50:36.398Z,41.60
2018-06-09T15:53:05.408Z,42.16
2018-06-09T15:55:34.546Z,42.08
2018-06-09T15:58:03.618Z,42.64
2018-06-09T16:00:32.577Z,43.17
2018-06-09T16:03:01.532Z,43.18
2018-06-09T16:05:30.535Z,42.38
2018-06-09T16:07:59.548Z,43.18
2018-06-09T16:10:28.558Z,43.56
2018-06-09T16:12:57.527Z,43.92
2018-06-09T16:15:26.574Z,43.63
2018-06-09T16:17:55.536Z,44.20
2018-06-09T16:20:24.617Z,43.49
2018-06-09T16:22:53.628Z,44.59
2018-06-09T16:25:22.742Z,45.09
2018-06-09T16:27:51.709Z,44.65
2018-06-09T16:30:20.729Z,44.62
2018-06-09T16:32:49.721Z,45.40
2018-06-09T16:35:18.726Z,45.30
2018-06-09T16:37:47.756Z,45.02
2018-06-09T16:40:16.783Z,44.89
2018-06-09T16:42:45.822Z,45.89
2018-06-09T16:45:14.901Z,45.57
2018-06-09T16:47:43.909Z,45.32
2018-06-09T16:50:12.868Z,46.77
2018-06-09T16:52:41.880Z,46.74
2018-06-09T16:55:10.881Z,47.04
2018-06-09T16:57:39.901Z,47.67
2018-06-09T17:00:08.852Z,48.28
2018-06-09T17:02:37.910Z,48.88
2018-06-09T17:05:06.969Z,49.43
2018-06-09T17:07:36.012Z,49.45
2018-06-09T17:10:05.114Z,51.42
2018-06-09T17:12:34.137Z,50.80
2018-06-09T17:15:03.141Z,50.87
2018-06-09T17:17:32.105Z,50.50
2018-06-09T17:20:01.060Z,51.84
2018-06-09T17:22:30.060Z,51.80
2018-06-09T17:24:59.040Z,51.47
2018-06-09T17:27:27.983Z,51.53
2018-06-09T17:29:57.005Z,51.20
2018-06-09T17:32:26.073Z,50.07
2018-06-09T17:34:55.132Z,51.01
2018-06-09T17:37:24.193Z,50.80
2018-06-09T17:39:53.214Z,51.30
2018-06-09T17:42:22.284Z,50.87
2018-06-09T17:44:51.234Z,52.01
2018-06-09T17:47:20.290Z,52.42
2018-06-09T17:49:49.364Z,51.78
2018-06-09T17:52:18.462Z,51.46
2018-06-09T17:54:47.500Z,52.23
2018-06-09T17:57:16.499Z,51.79
2018-06-09T17:59:45.589Z,51.74
2018-06-09T18:02:14.621Z,53.23
2018-06-09T18:04:43.661Z,52.78
2018-06-09T18:07:13.628Z,53.31
2018-06-09T18:09:42.577Z,53.49
2018-06-09T18:12:11.687Z,54.63
2018-06-09T18:14:40.742Z,55.24
2018-06-09T18:17:09.746Z,56.04
2018-06-09T18:19:38.805Z,57.34
2018-06-09T18:22:07.885Z,57.49
2018-06-09T18:24:37.029Z,58.39
2018-06-09T18:27:06.073Z,58.19
2018-06-09T18:29:35.101Z,60.07
2018-06-09T18:32:04.156Z,59.81
2018-06-09T18:34:33.128Z,60.74
2018-06-09T18:37:02.166Z,61.22
2018-06-09T18:39:31.244Z,61.96
2018-06-09T18:42:00.220Z,62.51
2018-06-09T18:44:29.429Z,63.17
2018-06-09T18:46:58.497Z,64.32
2018-06-09T18:49:27.670Z,65.40
2018-06-09T18:51:56.628Z,66.72
2018-06-09T18:54:25.623Z,67.83
2018-06-09T18:56:54.656Z,68.22
2018-06-09T18:59:23.677Z,69.51
2018-06-09T19:01:52.746Z,69.96
2018-06-09T19:04:21.757Z,70.18
2018-06-09T19:06:50.784Z,70.00
2018-06-09T19:09:19.756Z,70.02
2018-06-09T19:11:48.732Z,70.30
2018-06-09T19:14:17.789Z,70.92
2018-06-09T19:16:46.741Z,71.62
2018-06-09T19:19:15.712Z,71.21
2018-06-09T19:21:44.733Z,71.89
2018-06-09T19:24:13.745Z,71.81
2018-06-09T19:26:42.773Z,72.75
2018-06-09T19:29:11.733Z,72.60
2018-06-09T19:31:40.810Z,72.87
2018-06-09T19:34:09.801Z,73.13
2018-06-09T19:36:38.884Z,73.10
2018-06-09T19:39:08.816Z,73.23
2018-06-09T19:41:37.938Z,72.44
2018-06-09T19:44:07.025Z,73.38
2018-06-09T19:46:36.081Z,72.57
2018-06-09T19:49:05.097Z,72.87
2018-06-09T19:51:34.144Z,72.72
2018-06-09T19:54:03.175Z,73.35
2018-06-09T19:56:32.156Z,72.76
2018-06-09T19:59:01.130Z,71.93
2018-06-09T20:01:30.180Z,71.95
2018-06-09T20:03:59.278Z,71.70
2018-06-09T20:06:28.347Z,72.09
2018-06-09T20:08:57.458Z,71.92
2018-06-09T20:11:26.477Z,71.87
2018-06-09T20:13:55.498Z,71.81
2018-06-09T20:16:24.589Z,70.97
2018-06-09T20:18:53.620Z,69.63
2018-06-09T20:21:22.658Z,68.54
2018-06-09T20:23:51.763Z,68.11
2018-06-09T20:26:20.705Z,68.56
2018-06-09T20:28:49.761Z,67.73
2018-06-09T20:31:18.746Z,67.67
2018-06-09T20:33:47.757Z,67.07
2018-06-09T20:36:16.789Z,67.42
2018-06-09T20:38:45.836Z,67.19
2018-06-09T20:41:14.929Z,67.10
2018-06-09T20:43:43.897Z,67.39
2018-06-09T20:46:12.894Z,68.43
2018-06-09T20:48:41.957Z,68.96
2018-06-09T20:51:10.989Z,69.29
2018-06-09T20:53:40.086Z,68.92
2018-06-09T20:56:09.104Z,69.75
2018-06-09T20:58:40.960Z,69.94
2018-06-09T21:01:09.992Z,69.72
2018-06-09T21:03:39.014Z,69.94
2018-06-09T21:06:08.023Z,70.06
2018-06-09T21:08:36.983Z,69.89
2018-06-09T21:11:05.983Z,69.32
2018-06-09T21:13:35.006Z,70.31
2018-06-09T21:16:04.021Z,70.76
2018-06-09T21:18:33.044Z,70.17
2018-06-09T21:21:02.069Z,70.04
2018-06-09T21:23:31.088Z,70.63
2018-06-09T21:26:00.041Z,70.62
2018-06-09T21:28:33.228Z,70.78
2018-06-09T21:31:07.256Z,70.95
2018-06-09T21:33:52.537Z,70.26
2018-06-09T21:36:26.580Z,70.77
2018-06-09T21:39:00.630Z,70.76
2018-06-09T21:41:35.352Z,69.84
2018-06-09T21:44:09.492Z,69.98
2018-06-09T21:46:43.651Z,69.23
2018-06-09T21:49:12.744Z,68.49
2018-06-09T21:51:41.780Z,68.39
2018-06-09T21:54:10.731Z,68.63
2018-06-09T21:56:39.761Z,68.36
2018-06-09T21:59:08.804Z,68.34
2018-06-09T22:01:38.440Z,67.69
2018-06-09T22:04:07.449Z,67.80
2018-06-09T22:06:36.460Z,68.19
2018-06-09T22:09:06.971Z,67.95
2018-06-09T22:11:36.057Z,67.77
2018-06-09T22:14:05.285Z,68.37
2018-06-09T22:16:34.256Z,68.62
2018-06-09T22:19:03.286Z,68.01
2018-06-09T22:21:32.281Z,67.81
2018-06-09T22:24:01.258Z,68.44
2018-06-09T22:26:30.320Z,68.11
2018-06-09T22:28:59.329Z,68.39
2018-06-09T22:31:28.356Z,67.78
2018-06-09T22:33:57.362Z,67.67
2018-06-09T22:36:26.378Z,67.69
2018-06-09T22:38:55.418Z,68.29
2018-06-09T22:41:24.576Z,69.14
2018-06-09T22:43:53.694Z,68.58
2018-06-09T22:46:22.717Z,69.86
2018-06-09T22:48:51.758Z,70.15
2018-06-09T22:51:20.715Z,70.43
2018-06-09T22:53:49.774Z,71.27
2018-06-09T22:56:18.826Z,71.25
2018-06-09T22:58:47.774Z,72.50
2018-06-09T23:01:16.787Z,71.98
2018-06-09T23:03:45.816Z,73.36
2018-06-09T23:06:14.777Z,72.88
2018-06-09T23:08:43.853Z,74.07
2018-06-09T23:11:12.828Z,74.08
2018-06-09T23:13:41.829Z,74.90
2018-06-09T23:16:10.856Z,75.53
2018-06-09T23:18:39.836Z,76.53
2018-06-09T23:21:08.840Z,76.51
2018-06-09T23:23:37.901Z,76.27
2018-06-09T23:26:06.872Z,77.25
2018-06-09T23:28:35.892Z,76.24
2018-06-09T23:31:04.917Z,76.62
2018-06-09T23:33:33.989Z,77.24
2018-06-09T23:36:03.001Z,77.16
2018-06-09T23:38:32.023Z,77.16
2018-06-09T23:41:01.049Z,77.19
2018-06-09T23:43:30.048Z,77.59
2018-06-09T23:45:59.182Z,77.66
2018-06-09T23:48:28.147Z,77.54
2018-06-09T23:50:57.179Z,77.46
2018-06-09T23:53:26.140Z,76.79
2018-06-09T23:55:55.104Z,76.99
2018-06-09T23:58:24.107Z,75.88
